Terminal Aerodrome Forecast
Issued by NWS

Home | Current Version | Previous Version | Text Only | Print | Product List | Glossary Off
Versions: 1 2 3 4 5 6 7 8 9 10 11 12 13 14

000
FTUS43 KMPX 280200 AAA
TAFAXN
TAF AMD
KAXN 280219Z 2802/2824 33011KT P6SM VCSH BKN018 OVC030
      TEMPO 2803/2806 SCT018 BKN030
     FM280600 35007KT P6SM SCT030 BKN045
     FM280900 34005KT P6SM SCT050
     FM281600 33008KT P6SM SCT040=

USA.gov is the U.S. government's official web portal to all federal, state and local government web resources and services.